METAR stanice u blizini

 

LYBE - Beograd / Surčin, Srbija
Ažurirano: 01/12/2022 01:00
Vedro
Vedro
 Pravac vetra I
Vetar: I 22 km/h
Temperatura: 5°C
Osećaj hladnoće: 1°C
Tačka rose: 1°C
Vlažnost: 76%
Pritisak: 1021 hPa
Pregled: Vedro
Vidljivost: greater than 10 km
2022/12/01 00:00 LYBE 010000Z 10012KT CAVOK 05/01 Q1021 NOSIG
LYBT - Beograd / Batajnica, Srbija
Ažurirano: 01/12/2022 01:00
Vedro
Vedro
 Pravac vetra I
Vetar: I 17 km/h
Temperatura: 4°C
Osećaj hladnoće: 0°C
Tačka rose: 1°C
Vlažnost: 81%
Pritisak: 1021 hPa
Pregled: Vedro
Vidljivost: greater than 10 km
2022/12/01 00:00 LYBT 010000Z 09009KT 060V120 CAVOK 04/01 Q1021 NOSIG
LYVR - Vršac, Srbija
Ažurirano: 01/12/2022 01:00
Vedro
Vedro
 Pravac vetra varies
Vetar: varies 4 km/h
Temperatura: 5°C
Tačka rose: 5°C
Vlažnost: 100%
Pritisak: 1022 hPa
Pregled: Vedro
Vidljivost: greater than 10 km
2022/12/01 00:00 LYVR 010000Z AUTO VRB02KT CAVOK 05/05 Q1022
 
LYKV - Lađevci, Srbija
Ažurirano: 01/12/2022 01:00
Partly Cloudy
Partly Cloudy
 Pravac vetra varies
Vetar: varies 2 km/h
Temperatura: 4°C
Tačka rose: 3°C
Vlažnost: 93%
Pritisak: 1020 hPa
Oblaci: Partly Cloudy
Vidljivost: 10 km
Cloud details: Few Clouds 762 m
Partly Cloudy 914 m
2022/12/01 00:00 LYKV 010000Z VRB01KT 9999 FEW025 SCT030 04/03 Q1020 NOSIG
LYNI - Niš, Srbija
Ažurirano: 01/12/2022 01:00
Partly Cloudy
Partly Cloudy
 Pravac vetra SI
Vetar: SI 17 km/h
Temperatura: 5°C
Osećaj hladnoće: 2°C
Tačka rose: 1°C
Vlažnost: 76%
Pritisak: 1019 hPa
Oblaci: Partly Cloudy
Vidljivost: 10 km
Cloud details: Few Clouds 518 m
Partly Cloudy 1341 m
2022/12/01 00:00 LYNI 010000Z 05009KT 010V080 9999 FEW017 SCT044 05/01 Q1019 NOSIG
BKPR - Priština, Srbija
Ažurirano: 01/12/2022 01:30
Mostly Cloudy
Mostly Cloudy
 Pravac vetra S
Vetar: S 26 km/h
Temperatura: 3°C
Osećaj hladnoće: -2°C
Tačka rose: 2°C
Vlažnost: 93%
Pritisak: 1016 hPa
Oblaci: Mostly Cloudy
Vidljivost: 10 km
Cloud details: Partly Cloudy 549 m
Mostly Cloudy 762 m
2022/12/01 00:30 BKPR 010030Z 36014KT 9999 SCT018 BKN025 03/02 Q1016 NOSIG
 
LHPP - Pecs / Pogany, Hungary
Ažurirano: 01/12/2022 00:45
Mostly Cloudy
Mostly Cloudy
 Pravac vetra ISI
Vetar: ISI 13 km/h
Temperatura: 4°C
Osećaj hladnoće: 1°C
Tačka rose: 2°C
Vlažnost: 87%
Pritisak: 1021 hPa
Oblaci: Mostly Cloudy
Vidljivost: 10 km
Cloud details: Mostly Cloudy 1128 m
Mostly Cloudy 2591 m
2022/11/30 23:45 LHPP 302345Z AUTO 07007KT 040V100 9999 BKN037 BKN085 04/02 Q1021
LHUD - Szeged, Hungary
Ažurirano: 04/07/2019 01:45
NOT Current
Vedro
Vedro
 Pravac vetra S
Vetar: S 7 km/h
Temperatura: 18°C
Tačka rose: 13°C
Vlažnost: 73%
Pritisak: 1019 hPa
Pregled: Vedro
Vidljivost: greater than 10 km
2019/07/03 23:45 LHUD 032345Z 35004KT CAVOK 18/13 Q1019
LRTR - Timisoara, Romania
Ažurirano: 01/12/2022 01:00
Vedro
Vedro
 Pravac vetra SSZ
Vetar: SSZ 6 km/h
Temperatura: 5°C
Tačka rose: 4°C
Vlažnost: 93%
Pritisak: 1022 hPa
Pregled: Vedro
Vidljivost: greater than 10 km
2022/12/01 00:00 LRTR 010000Z 34003KT CAVOK 05/04 Q1022
 
LRCV - Craiova, Romania
Ažurirano: 01/12/2022 01:00
Slaba kiša, Sneg, Oblačno
Slaba kiša, Sneg, Oblačno
 Pravac vetra I
Vetar: I 24 km/h
Pregled: Slaba kiša, Sneg
Oblaci: Oblačno
Vidljivost: 8 km
Cloud details: Partly Cloudy 274 m
Oblačno 366 m
2022/12/01 00:00 LRCV 010000Z 08013KT 8000 -RASN SCT009 OVC012 02/// Q1024
LBSF - Sofia, Bulgaria
Ažurirano: 01/12/2022 01:30
Oblačno
Oblačno
 Pravac vetra IJI
Vetar: IJI 13 km/h
Temperatura: 4°C
Osećaj hladnoće: 1°C
Tačka rose: 1°C
Vlažnost: 81%
Pritisak: 1019 hPa
Oblaci: Oblačno
Vidljivost: 10 km
Cloud details: Mostly Cloudy 427 m
Oblačno 701 m
2022/12/01 00:30 LBSF 010030Z AUTO 11007KT 9999 BKN014/// OVC023/// 04/01 Q1019 NOSIG
LWSK - Skoplje, Makedonija
Ažurirano: 01/12/2022 01:30
Slaba kiša, Mist, Oblačno
Slaba kiša, Mist, Oblačno
 Pravac vetra calm
Vetar: Tišina
Temperatura: 6°C
Tačka rose: 5°C
Vlažnost: 93%
Pritisak: 1017 hPa
Pregled: Slaba kiša, Mist
Oblaci: Oblačno
Vidljivost: 2 km
Cloud details: Partly Cloudy 61 m
Mostly Cloudy 122 m
Oblačno 610 m
2022/12/01 00:30 LWSK 010030Z 00000KT 2400 -RA BR SCT002 BKN004 OVC020 06/05 Q1017 REDZ NOSIG
 
LYPG - Podgorica, Crna Gora
Ažurirano: 01/12/2022 01:00
Mist, Pretežno oblačno
Mist, Pretežno oblačno
 Pravac vetra varies
Vetar: varies 4 km/h
Temperatura: 6°C
Tačka rose: 5°C
Vlažnost: 93%
Pritisak: 1012 hPa
Pregled: Mist
Oblaci: Mostly Cloudy
Vidljivost: 5 km
Cloud details: Mostly Cloudy 2743 m
2022/12/01 00:00 LYPG 010000Z VRB02KT 5000 BR BKN090 06/05 Q1012 TEMPO 4000 BR
LQSA - Sarajevo, Bosna i Hercegovina
Ažurirano: 01/12/2022 01:00
Oblačno
Oblačno
 Pravac vetra varies
Vetar: varies 4 km/h
Temperatura: 3°C
Tačka rose: 2°C
Vlažnost: 93%
Pritisak: 1017 hPa
Oblaci: Oblačno
Vidljivost: 10 km
Cloud details: Partly Cloudy 366 m
Oblačno 762 m
2022/12/01 00:00 LQSA 010000Z VRB02KT 9999 SCT012 OVC025 03/02 Q1017
LDOS - Osijek, Hrvatksa
Ažurirano: 01/12/2022 01:30
Partly Cloudy
Partly Cloudy
 Pravac vetra I
Vetar: I 20 km/h
Temperatura: 5°C
Osećaj hladnoće: 1°C
Tačka rose: 2°C
Vlažnost: 81%
Pritisak: 1021 hPa
Oblaci: Partly Cloudy
Vidljivost: 10 km
Cloud details: Partly Cloudy 1006 m
2022/12/01 00:30 LDOS 010030Z 08011KT 9999 SCT033 05/02 Q1021